sensor_id;sensor_type;location;lat;lon;timestamp;temperature;humidity
78696;SHT31;68030;51.980;5.646;2023-02-28T00:00:25;4.7;57.8
78696;SHT31;68030;51.980;5.646;2023-02-28T00:02:55;4.7;57.8
78696;SHT31;68030;51.980;5.646;2023-02-28T00:05:26;4.7;57.9
78696;SHT31;68030;51.980;5.646;2023-02-28T00:07:57;4.7;57.9
78696;SHT31;68030;51.980;5.646;2023-02-28T00:10:28;4.7;57.9
78696;SHT31;68030;51.980;5.646;2023-02-28T00:13:01;4.8;57.8
78696;SHT31;68030;51.980;5.646;2023-02-28T00:15:34;4.8;57.8
78696;SHT31;68030;51.980;5.646;2023-02-28T00:18:03;4.9;57.5
78696;SHT31;68030;51.980;5.646;2023-02-28T00:20:33;4.9;57.4
78696;SHT31;68030;51.980;5.646;2023-02-28T00:23:02;5.0;57.2
78696;SHT31;68030;51.980;5.646;2023-02-28T00:25:32;5.0;57.1
78696;SHT31;68030;51.980;5.646;2023-02-28T00:28:02;5.1;57.1
78696;SHT31;68030;51.980;5.646;2023-02-28T00:30:31;5.2;56.8
78696;SHT31;68030;51.980;5.646;2023-02-28T00:33:03;5.2;56.8
78696;SHT31;68030;51.980;5.646;2023-02-28T00:35:33;5.2;56.7
78696;SHT31;68030;51.980;5.646;2023-02-28T00:38:02;5.3;56.7
78696;SHT31;68030;51.980;5.646;2023-02-28T00:40:33;5.3;56.6
78696;SHT31;68030;51.980;5.646;2023-02-28T00:43:03;5.4;56.4
78696;SHT31;68030;51.980;5.646;2023-02-28T00:45:33;5.5;56.3
78696;SHT31;68030;51.980;5.646;2023-02-28T00:48:03;5.6;56.0
78696;SHT31;68030;51.980;5.646;2023-02-28T00:50:33;5.7;55.7
78696;SHT31;68030;51.980;5.646;2023-02-28T00:53:03;5.7;55.5
78696;SHT31;68030;51.980;5.646;2023-02-28T00:55:32;5.8;55.3
78696;SHT31;68030;51.980;5.646;2023-02-28T00:58:01;5.9;54.8
78696;SHT31;68030;51.980;5.646;2023-02-28T01:00:31;5.9;54.6
78696;SHT31;68030;51.980;5.646;2023-02-28T01:03:01;6.0;54.3
78696;SHT31;68030;51.980;5.646;2023-02-28T01:05:30;6.0;54.2
78696;SHT31;68030;51.980;5.646;2023-02-28T01:07:59;6.1;54.3
78696;SHT31;68030;51.980;5.646;2023-02-28T01:10:29;6.1;54.2
78696;SHT31;68030;51.980;5.646;2023-02-28T01:13:01;6.1;54.1
78696;SHT31;68030;51.980;5.646;2023-02-28T01:15:31;6.1;54.3
78696;SHT31;68030;51.980;5.646;2023-02-28T01:18:01;6.0;54.4
78696;SHT31;68030;51.980;5.646;2023-02-28T01:20:31;6.0;54.8
78696;SHT31;68030;51.980;5.646;2023-02-28T01:23:00;5.9;55.0
78696;SHT31;68030;51.980;5.646;2023-02-28T01:25:30;5.9;55.1
78696;SHT31;68030;51.980;5.646;2023-02-28T01:27:59;5.9;55.2
78696;SHT31;68030;51.980;5.646;2023-02-28T01:30:29;5.9;55.3
78696;SHT31;68030;51.980;5.646;2023-02-28T01:32:59;5.9;55.2
78696;SHT31;68030;51.980;5.646;2023-02-28T01:35:32;5.9;55.3
78696;SHT31;68030;51.980;5.646;2023-02-28T01:38:03;5.9;55.3
78696;SHT31;68030;51.980;5.646;2023-02-28T01:40:33;5.9;55.2
78696;SHT31;68030;51.980;5.646;2023-02-28T01:43:07;5.9;55.2
78696;SHT31;68030;51.980;5.646;2023-02-28T01:45:39;5.9;55.3
78696;SHT31;68030;51.980;5.646;2023-02-28T01:48:09;6.0;55.2
78696;SHT31;68030;51.980;5.646;2023-02-28T01:50:44;6.0;55.2
78696;SHT31;68030;51.980;5.646;2023-02-28T01:53:18;6.0;55.1
78696;SHT31;68030;51.980;5.646;2023-02-28T01:55:52;6.0;55.1
78696;SHT31;68030;51.980;5.646;2023-02-28T01:58:24;6.0;55.2
78696;SHT31;68030;51.980;5.646;2023-02-28T02:00:54;6.0;55.0
78696;SHT31;68030;51.980;5.646;2023-02-28T02:03:25;6.0;55.0
78696;SHT31;68030;51.980;5.646;2023-02-28T02:05:56;6.1;54.9
78696;SHT31;68030;51.980;5.646;2023-02-28T02:08:29;6.1;54.7
78696;SHT31;68030;51.980;5.646;2023-02-28T02:11:00;6.1;54.5
78696;SHT31;68030;51.980;5.646;2023-02-28T02:13:42;6.2;54.5
78696;SHT31;68030;51.980;5.646;2023-02-28T02:16:27;6.2;54.2
78696;SHT31;68030;51.980;5.646;2023-02-28T02:19:11;6.3;53.9
78696;SHT31;68030;51.980;5.646;2023-02-28T02:22:00;6.3;53.7
78696;SHT31;68030;51.980;5.646;2023-02-28T02:24:49;6.4;53.4
78696;SHT31;68030;51.980;5.646;2023-02-28T02:29:01;6.4;53.3
78696;SHT31;68030;51.980;5.646;2023-02-28T02:31:57;6.5;52.8
78696;SHT31;68030;51.980;5.646;2023-02-28T02:34:41;6.5;52.6
78696;SHT31;68030;51.980;5.646;2023-02-28T02:37:27;6.5;52.5
78696;SHT31;68030;51.980;5.646;2023-02-28T02:40:04;6.5;52.2
78696;SHT31;68030;51.980;5.646;2023-02-28T02:42:44;6.6;52.3
78696;SHT31;68030;51.980;5.646;2023-02-28T02:45:21;6.6;52.2
78696;SHT31;68030;51.980;5.646;2023-02-28T02:47:56;6.6;51.9
78696;SHT31;68030;51.980;5.646;2023-02-28T02:50:31;6.7;53.1
78696;SHT31;68030;51.980;5.646;2023-02-28T02:53:04;6.7;53.8
78696;SHT31;68030;51.980;5.646;2023-02-28T02:55:38;6.7;53.9
78696;SHT31;68030;51.980;5.646;2023-02-28T02:58:14;6.7;54.0
78696;SHT31;68030;51.980;5.646;2023-02-28T03:00:51;6.7;53.6
78696;SHT31;68030;51.980;5.646;2023-02-28T03:03:23;6.6;54.1
78696;SHT31;68030;51.980;5.646;2023-02-28T03:06:00;6.6;54.4
78696;SHT31;68030;51.980;5.646;2023-02-28T03:08:34;6.6;54.5
78696;SHT31;68030;51.980;5.646;2023-02-28T03:11:06;6.6;54.6
78696;SHT31;68030;51.980;5.646;2023-02-28T03:13:56;6.5;54.7
78696;SHT31;68030;51.980;5.646;2023-02-28T03:16:48;6.5;54.0
78696;SHT31;68030;51.980;5.646;2023-02-28T03:19:37;6.5;53.3
78696;SHT31;68030;51.980;5.646;2023-02-28T03:22:16;6.5;53.0
78696;SHT31;68030;51.980;5.646;2023-02-28T03:24:56;6.5;53.4
78696;SHT31;68030;51.980;5.646;2023-02-28T03:27:30;6.4;52.7
78696;SHT31;68030;51.980;5.646;2023-02-28T03:30:09;6.4;52.8
78696;SHT31;68030;51.980;5.646;2023-02-28T03:32:46;6.5;52.6
78696;SHT31;68030;51.980;5.646;2023-02-28T03:35:21;6.5;52.8
78696;SHT31;68030;51.980;5.646;2023-02-28T03:37:56;6.5;52.8
78696;SHT31;68030;51.980;5.646;2023-02-28T03:40:33;6.5;51.9
78696;SHT31;68030;51.980;5.646;2023-02-28T03:43:12;6.5;52.0
78696;SHT31;68030;51.980;5.646;2023-02-28T03:45:45;6.5;51.2
78696;SHT31;68030;51.980;5.646;2023-02-28T03:48:21;6.5;51.2
78696;SHT31;68030;51.980;5.646;2023-02-28T03:50:55;6.5;51.9
78696;SHT31;68030;51.980;5.646;2023-02-28T03:53:31;6.5;50.5
78696;SHT31;68030;51.980;5.646;2023-02-28T03:56:07;6.5;49.8
78696;SHT31;68030;51.980;5.646;2023-02-28T03:58:46;6.4;49.7
78696;SHT31;68030;51.980;5.646;2023-02-28T04:01:21;6.4;49.0
78696;SHT31;68030;51.980;5.646;2023-02-28T04:03:53;6.4;49.4
78696;SHT31;68030;51.980;5.646;2023-02-28T04:06:24;6.4;50.2
78696;SHT31;68030;51.980;5.646;2023-02-28T04:08:56;6.4;48.4
78696;SHT31;68030;51.980;5.646;2023-02-28T04:11:33;6.3;48.3
78696;SHT31;68030;51.980;5.646;2023-02-28T04:14:05;6.3;49.2
78696;SHT31;68030;51.980;5.646;2023-02-28T04:16:39;6.3;47.5
78696;SHT31;68030;51.980;5.646;2023-02-28T04:19:11;6.2;48.0
78696;SHT31;68030;51.980;5.646;2023-02-28T04:21:44;6.2;48.4
78696;SHT31;68030;51.980;5.646;2023-02-28T04:24:15;6.1;48.9
78696;SHT31;68030;51.980;5.646;2023-02-28T04:26:47;6.1;49.2
78696;SHT31;68030;51.980;5.646;2023-02-28T04:29:22;6.0;49.9
78696;SHT31;68030;51.980;5.646;2023-02-28T04:31:52;5.9;50.0
78696;SHT31;68030;51.980;5.646;2023-02-28T04:34:25;5.9;50.5
78696;SHT31;68030;51.980;5.646;2023-02-28T04:36:56;5.8;51.0
78696;SHT31;68030;51.980;5.646;2023-02-28T04:39:27;5.8;50.5
78696;SHT31;68030;51.980;5.646;2023-02-28T04:41:57;5.8;50.6
78696;SHT31;68030;51.980;5.646;2023-02-28T04:44:28;5.8;50.5
78696;SHT31;68030;51.980;5.646;2023-02-28T04:46:57;5.8;50.8
78696;SHT31;68030;51.980;5.646;2023-02-28T04:49:28;5.8;50.8
78696;SHT31;68030;51.980;5.646;2023-02-28T04:51:58;5.8;51.4
78696;SHT31;68030;51.980;5.646;2023-02-28T04:54:28;5.7;51.7
78696;SHT31;68030;51.980;5.646;2023-02-28T04:56:57;5.7;51.8
78696;SHT31;68030;51.980;5.646;2023-02-28T04:59:28;5.7;52.4
78696;SHT31;68030;51.980;5.646;2023-02-28T05:01:58;5.7;52.4
78696;SHT31;68030;51.980;5.646;2023-02-28T05:04:27;5.6;52.9
78696;SHT31;68030;51.980;5.646;2023-02-28T05:06:57;5.6;52.8
78696;SHT31;68030;51.980;5.646;2023-02-28T05:09:26;5.5;53.1
78696;SHT31;68030;51.980;5.646;2023-02-28T05:11:56;5.5;53.4
78696;SHT31;68030;51.980;5.646;2023-02-28T05:14:27;5.5;53.7
78696;SHT31;68030;51.980;5.646;2023-02-28T05:16:57;5.5;53.7
78696;SHT31;68030;51.980;5.646;2023-02-28T05:19:26;5.5;54.1
78696;SHT31;68030;51.980;5.646;2023-02-28T05:21:57;5.5;54.0
78696;SHT31;68030;51.980;5.646;2023-02-28T05:24:26;5.5;54.0
78696;SHT31;68030;51.980;5.646;2023-02-28T05:26:56;5.5;53.7
78696;SHT31;68030;51.980;5.646;2023-02-28T05:29:27;5.5;53.7
78696;SHT31;68030;51.980;5.646;2023-02-28T05:31:57;5.6;53.8
78696;SHT31;68030;51.980;5.646;2023-02-28T05:34:26;5.6;53.2
78696;SHT31;68030;51.980;5.646;2023-02-28T05:36:55;5.5;53.5
78696;SHT31;68030;51.980;5.646;2023-02-28T05:39:25;5.5;53.5
78696;SHT31;68030;51.980;5.646;2023-02-28T05:41:56;5.5;53.6
78696;SHT31;68030;51.980;5.646;2023-02-28T05:44:26;5.5;53.7
78696;SHT31;68030;51.980;5.646;2023-02-28T05:46:56;5.6;53.7
78696;SHT31;68030;51.980;5.646;2023-02-28T05:49:26;5.6;53.8
78696;SHT31;68030;51.980;5.646;2023-02-28T05:51:55;5.6;53.6
78696;SHT31;68030;51.980;5.646;2023-02-28T05:54:25;5.6;53.6
78696;SHT31;68030;51.980;5.646;2023-02-28T05:56:54;5.7;53.9
78696;SHT31;68030;51.980;5.646;2023-02-28T05:59:24;5.7;53.3
78696;SHT31;68030;51.980;5.646;2023-02-28T06:01:54;5.7;53.0
78696;SHT31;68030;51.980;5.646;2023-02-28T06:04:23;5.8;52.8
78696;SHT31;68030;51.980;5.646;2023-02-28T06:06:53;5.8;53.2
78696;SHT31;68030;51.980;5.646;2023-02-28T06:09:25;5.9;54.2
78696;SHT31;68030;51.980;5.646;2023-02-28T06:11:54;5.9;54.0
78696;SHT31;68030;51.980;5.646;2023-02-28T06:14:23;6.0;53.8
78696;SHT31;68030;51.980;5.646;2023-02-28T06:16:53;6.0;53.6
78696;SHT31;68030;51.980;5.646;2023-02-28T06:19:23;6.0;53.5
78696;SHT31;68030;51.980;5.646;2023-02-28T06:21:55;6.1;53.6
78696;SHT31;68030;51.980;5.646;2023-02-28T06:24:28;6.1;53.3
78696;SHT31;68030;51.980;5.646;2023-02-28T06:27:00;6.1;52.9
78696;SHT31;68030;51.980;5.646;2023-02-28T06:29:33;6.2;53.2
78696;SHT31;68030;51.980;5.646;2023-02-28T06:32:03;6.2;53.0
78696;SHT31;68030;51.980;5.646;2023-02-28T06:34:33;6.2;53.3
78696;SHT31;68030;51.980;5.646;2023-02-28T06:37:03;6.2;53.3
78696;SHT31;68030;51.980;5.646;2023-02-28T06:39:32;6.2;53.2
78696;SHT31;68030;51.980;5.646;2023-02-28T06:42:02;6.2;53.1
78696;SHT31;68030;51.980;5.646;2023-02-28T06:44:34;6.3;52.8
78696;SHT31;68030;51.980;5.646;2023-02-28T06:47:06;6.3;52.6
78696;SHT31;68030;51.980;5.646;2023-02-28T06:49:36;6.3;52.5
78696;SHT31;68030;51.980;5.646;2023-02-28T06:52:08;6.3;52.3
78696;SHT31;68030;51.980;5.646;2023-02-28T06:54:38;6.3;52.4
78696;SHT31;68030;51.980;5.646;2023-02-28T06:57:08;6.3;52.2
78696;SHT31;68030;51.980;5.646;2023-02-28T06:59:39;6.3;52.3
78696;SHT31;68030;51.980;5.646;2023-02-28T07:02:10;6.3;52.2
78696;SHT31;68030;51.980;5.646;2023-02-28T07:04:41;6.4;52.0
78696;SHT31;68030;51.980;5.646;2023-02-28T07:07:13;6.4;51.5
78696;SHT31;68030;51.980;5.646;2023-02-28T07:09:43;6.4;51.3
78696;SHT31;68030;51.980;5.646;2023-02-28T07:12:12;6.5;51.6
78696;SHT31;68030;51.980;5.646;2023-02-28T07:14:42;6.5;51.7
78696;SHT31;68030;51.980;5.646;2023-02-28T07:17:13;6.6;51.3
78696;SHT31;68030;51.980;5.646;2023-02-28T07:19:42;6.6;50.4
78696;SHT31;68030;51.980;5.646;2023-02-28T07:22:12;6.7;50.1
78696;SHT31;68030;51.980;5.646;2023-02-28T07:24:42;6.7;49.4
78696;SHT31;68030;51.980;5.646;2023-02-28T07:27:14;6.8;49.5
78696;SHT31;68030;51.980;5.646;2023-02-28T07:29:49;6.8;49.2
78696;SHT31;68030;51.980;5.646;2023-02-28T07:32:19;6.9;48.8
78696;SHT31;68030;51.980;5.646;2023-02-28T07:34:49;6.9;47.7
78696;SHT31;68030;51.980;5.646;2023-02-28T07:37:20;7.0;47.4
78696;SHT31;68030;51.980;5.646;2023-02-28T07:39:50;7.0;47.8
78696;SHT31;68030;51.980;5.646;2023-02-28T07:42:21;7.1;46.3
78696;SHT31;68030;51.980;5.646;2023-02-28T07:44:53;7.1;46.7
78696;SHT31;68030;51.980;5.646;2023-02-28T07:47:22;7.1;46.2
78696;SHT31;68030;51.980;5.646;2023-02-28T07:49:51;7.1;45.9
78696;SHT31;68030;51.980;5.646;2023-02-28T07:52:22;7.1;45.8
78696;SHT31;68030;51.980;5.646;2023-02-28T07:54:52;7.1;45.3
78696;SHT31;68030;51.980;5.646;2023-02-28T07:57:25;7.1;45.1
78696;SHT31;68030;51.980;5.646;2023-02-28T07:59:55;7.1;45.2
78696;SHT31;68030;51.980;5.646;2023-02-28T08:02:25;7.2;45.5
78696;SHT31;68030;51.980;5.646;2023-02-28T08:04:56;7.2;44.8
78696;SHT31;68030;51.980;5.646;2023-02-28T08:07:29;7.3;43.5
78696;SHT31;68030;51.980;5.646;2023-02-28T08:10:00;7.3;42.9
78696;SHT31;68030;51.980;5.646;2023-02-28T08:12:32;7.4;43.1
78696;SHT31;68030;51.980;5.646;2023-02-28T08:15:01;7.5;42.6
78696;SHT31;68030;51.980;5.646;2023-02-28T08:17:31;7.6;41.7
78696;SHT31;68030;51.980;5.646;2023-02-28T08:20:00;7.7;37.2
78696;SHT31;68030;51.980;5.646;2023-02-28T08:22:31;7.8;35.7
78696;SHT31;68030;51.980;5.646;2023-02-28T08:25:00;7.9;34.0
78696;SHT31;68030;51.980;5.646;2023-02-28T08:27:31;7.9;33.6
78696;SHT31;68030;51.980;5.646;2023-02-28T08:30:01;7.9;34.0
78696;SHT31;68030;51.980;5.646;2023-02-28T08:32:32;8.0;33.5
78696;SHT31;68030;51.980;5.646;2023-02-28T08:35:04;8.0;33.0
78696;SHT31;68030;51.980;5.646;2023-02-28T08:37:34;8.0;32.4
78696;SHT31;68030;51.980;5.646;2023-02-28T08:40:05;8.0;33.1
78696;SHT31;68030;51.980;5.646;2023-02-28T08:42:35;8.0;32.8
78696;SHT31;68030;51.980;5.646;2023-02-28T08:45:07;8.0;33.0
78696;SHT31;68030;51.980;5.646;2023-02-28T08:47:37;7.9;33.2
78696;SHT31;68030;51.980;5.646;2023-02-28T08:50:07;7.9;33.2
78696;SHT31;68030;51.980;5.646;2023-02-28T08:52:37;7.9;33.0
78696;SHT31;68030;51.980;5.646;2023-02-28T08:55:08;7.8;32.7
78696;SHT31;68030;51.980;5.646;2023-02-28T08:57:38;7.8;32.7
78696;SHT31;68030;51.980;5.646;2023-02-28T09:00:09;7.8;33.2
78696;SHT31;68030;51.980;5.646;2023-02-28T09:02:41;7.7;33.8
78696;SHT31;68030;51.980;5.646;2023-02-28T09:05:11;7.7;34.2
78696;SHT31;68030;51.980;5.646;2023-02-28T09:07:40;7.7;34.8
78696;SHT31;68030;51.980;5.646;2023-02-28T09:10:11;7.7;35.2
78696;SHT31;68030;51.980;5.646;2023-02-28T09:12:40;7.7;32.2
78696;SHT31;68030;51.980;5.646;2023-02-28T09:15:13;7.7;31.8
78696;SHT31;68030;51.980;5.646;2023-02-28T09:17:43;7.7;31.7
78696;SHT31;68030;51.980;5.646;2023-02-28T09:20:13;7.7;32.1
78696;SHT31;68030;51.980;5.646;2023-02-28T09:22:43;7.7;32.3
78696;SHT31;68030;51.980;5.646;2023-02-28T09:25:12;7.7;31.4
78696;SHT31;68030;51.980;5.646;2023-02-28T09:27:42;7.7;31.1
78696;SHT31;68030;51.980;5.646;2023-02-28T09:30:14;7.7;30.7
78696;SHT31;68030;51.980;5.646;2023-02-28T09:32:44;7.7;30.0
78696;SHT31;68030;51.980;5.646;2023-02-28T09:35:19;7.7;30.0
78696;SHT31;68030;51.980;5.646;2023-02-28T09:37:50;7.7;30.0
78696;SHT31;68030;51.980;5.646;2023-02-28T09:40:23;7.7;30.1
78696;SHT31;68030;51.980;5.646;2023-02-28T09:42:55;7.7;30.1
78696;SHT31;68030;51.980;5.646;2023-02-28T09:45:28;7.7;30.6
78696;SHT31;68030;51.980;5.646;2023-02-28T09:48:04;7.7;31.1
78696;SHT31;68030;51.980;5.646;2023-02-28T09:50:40;7.7;30.6
78696;SHT31;68030;51.980;5.646;2023-02-28T09:53:19;7.7;31.2
78696;SHT31;68030;51.980;5.646;2023-02-28T09:55:52;7.7;31.7
78696;SHT31;68030;51.980;5.646;2023-02-28T09:58:33;7.8;30.9
78696;SHT31;68030;51.980;5.646;2023-02-28T10:01:21;7.8;30.6
78696;SHT31;68030;51.980;5.646;2023-02-28T10:03:57;7.9;29.8
78696;SHT31;68030;51.980;5.646;2023-02-28T10:06:38;7.9;29.9
78696;SHT31;68030;51.980;5.646;2023-02-28T10:09:13;7.9;30.3
78696;SHT31;68030;51.980;5.646;2023-02-28T10:11:46;7.9;30.4
78696;SHT31;68030;51.980;5.646;2023-02-28T10:14:18;7.9;30.7
78696;SHT31;68030;51.980;5.646;2023-02-28T10:16:53;8.0;30.1
78696;SHT31;68030;51.980;5.646;2023-02-28T10:19:30;8.1;30.0
78696;SHT31;68030;51.980;5.646;2023-02-28T10:22:08;8.1;29.9
78696;SHT31;68030;51.980;5.646;2023-02-28T10:24:41;8.2;30.0
78696;SHT31;68030;51.980;5.646;2023-02-28T10:27:15;8.2;30.1
78696;SHT31;68030;51.980;5.646;2023-02-28T10:29:49;8.2;30.3
78696;SHT31;68030;51.980;5.646;2023-02-28T10:32:23;8.2;30.1
78696;SHT31;68030;51.980;5.646;2023-02-28T10:34:59;8.3;30.6
78696;SHT31;68030;51.980;5.646;2023-02-28T10:37:29;8.3;30.1
78696;SHT31;68030;51.980;5.646;2023-02-28T10:39:59;8.4;30.0
78696;SHT31;68030;51.980;5.646;2023-02-28T10:42:30;8.4;30.1
78696;SHT31;68030;51.980;5.646;2023-02-28T10:45:13;8.3;30.1
78696;SHT31;68030;51.980;5.646;2023-02-28T10:47:53;8.3;30.2
78696;SHT31;68030;51.980;5.646;2023-02-28T10:50:33;8.3;30.3
78696;SHT31;68030;51.980;5.646;2023-02-28T10:54:17;8.3;30.7
78696;SHT31;68030;51.980;5.646;2023-02-28T10:57:07;8.3;31.5
78696;SHT31;68030;51.980;5.646;2023-02-28T10:59:37;8.4;31.4
78696;SHT31;68030;51.980;5.646;2023-02-28T11:02:30;8.4;32.0
78696;SHT31;68030;51.980;5.646;2023-02-28T11:05:01;8.5;30.5
78696;SHT31;68030;51.980;5.646;2023-02-28T11:07:31;8.6;31.2
78696;SHT31;68030;51.980;5.646;2023-02-28T11:10:01;8.7;30.9
78696;SHT31;68030;51.980;5.646;2023-02-28T11:12:37;8.8;31.3
78696;SHT31;68030;51.980;5.646;2023-02-28T11:15:22;8.9;30.9
78696;SHT31;68030;51.980;5.646;2023-02-28T11:17:58;9.0;31.2
78696;SHT31;68030;51.980;5.646;2023-02-28T11:20:30;9.0;30.2
78696;SHT31;68030;51.980;5.646;2023-02-28T11:23:05;9.0;31.4
78696;SHT31;68030;51.980;5.646;2023-02-28T11:25:40;9.0;31.1
78696;SHT31;68030;51.980;5.646;2023-02-28T11:28:27;9.0;30.3
78696;SHT31;68030;51.980;5.646;2023-02-28T11:31:04;9.1;30.7
78696;SHT31;68030;51.980;5.646;2023-02-28T11:33:41;9.1;31.0
78696;SHT31;68030;51.980;5.646;2023-02-28T11:36:16;9.1;30.9
78696;SHT31;68030;51.980;5.646;2023-02-28T11:38:48;9.2;30.2
78696;SHT31;68030;51.980;5.646;2023-02-28T11:41:44;9.2;30.0
78696;SHT31;68030;51.980;5.646;2023-02-28T11:44:35;9.2;30.2
78696;SHT31;68030;51.980;5.646;2023-02-28T11:47:12;9.2;29.9
78696;SHT31;68030;51.980;5.646;2023-02-28T11:49:55;9.2;29.9
78696;SHT31;68030;51.980;5.646;2023-02-28T11:52:36;9.1;30.1
78696;SHT31;68030;51.980;5.646;2023-02-28T11:55:15;9.1;30.6
78696;SHT31;68030;51.980;5.646;2023-02-28T11:58:39;9.1;30.0
78696;SHT31;68030;51.980;5.646;2023-02-28T12:01:41;9.1;30.5
78696;SHT31;68030;51.980;5.646;2023-02-28T12:04:24;9.0;29.6
78696;SHT31;68030;51.980;5.646;2023-02-28T12:07:02;9.0;30.6
78696;SHT31;68030;51.980;5.646;2023-02-28T12:09:46;9.0;30.6
78696;SHT31;68030;51.980;5.646;2023-02-28T12:12:38;9.0;29.7
78696;SHT31;68030;51.980;5.646;2023-02-28T12:15:29;9.0;30.0
78696;SHT31;68030;51.980;5.646;2023-02-28T12:18:17;9.0;29.6
78696;SHT31;68030;51.980;5.646;2023-02-28T12:20:56;9.0;29.0
78696;SHT31;68030;51.980;5.646;2023-02-28T12:23:41;9.0;29.2
78696;SHT31;68030;51.980;5.646;2023-02-28T12:26:22;9.0;29.6
78696;SHT31;68030;51.980;5.646;2023-02-28T12:29:01;9.0;29.5
78696;SHT31;68030;51.980;5.646;2023-02-28T12:31:37;9.0;29.0
78696;SHT31;68030;51.980;5.646;2023-02-28T12:34:13;9.0;28.6
78696;SHT31;68030;51.980;5.646;2023-02-28T12:36:46;9.0;28.8
78696;SHT31;68030;51.980;5.646;2023-02-28T12:39:20;9.0;28.9
78696;SHT31;68030;51.980;5.646;2023-02-28T12:41:57;9.0;28.9
78696;SHT31;68030;51.980;5.646;2023-02-28T12:44:34;9.0;28.9
78696;SHT31;68030;51.980;5.646;2023-02-28T12:47:10;9.0;28.8
78696;SHT31;68030;51.980;5.646;2023-02-28T12:49:45;9.0;29.3
78696;SHT31;68030;51.980;5.646;2023-02-28T12:52:20;9.0;29.0
78696;SHT31;68030;51.980;5.646;2023-02-28T12:54:59;9.0;29.0
78696;SHT31;68030;51.980;5.646;2023-02-28T12:57:38;9.0;29.3
78696;SHT31;68030;51.980;5.646;2023-02-28T13:00:15;9.0;29.1
78696;SHT31;68030;51.980;5.646;2023-02-28T13:04:03;9.1;29.1
78696;SHT31;68030;51.980;5.646;2023-02-28T13:06:54;9.1;29.7
78696;SHT31;68030;51.980;5.646;2023-02-28T13:09:28;9.1;29.2
78696;SHT31;68030;51.980;5.646;2023-02-28T13:12:01;9.2;29.3
78696;SHT31;68030;51.980;5.646;2023-02-28T13:14:37;9.2;28.4
78696;SHT31;68030;51.980;5.646;2023-02-28T13:17:19;9.2;28.5
78696;SHT31;68030;51.980;5.646;2023-02-28T13:19:59;9.3;28.7
78696;SHT31;68030;51.980;5.646;2023-02-28T13:22:41;9.3;28.1
78696;SHT31;68030;51.980;5.646;2023-02-28T13:29:00;9.3;28.3
78696;SHT31;68030;51.980;5.646;2023-02-28T13:31:31;9.3;28.6
78696;SHT31;68030;51.980;5.646;2023-02-28T13:34:15;9.3;28.5
78696;SHT31;68030;51.980;5.646;2023-02-28T13:36:47;9.3;28.8
78696;SHT31;68030;51.980;5.646;2023-02-28T13:39:48;9.4;28.4
78696;SHT31;68030;51.980;5.646;2023-02-28T13:42:47;9.4;28.6
78696;SHT31;68030;51.980;5.646;2023-02-28T13:45:26;9.5;27.9
78696;SHT31;68030;51.980;5.646;2023-02-28T13:48:00;9.5;28.1
78696;SHT31;68030;51.980;5.646;2023-02-28T13:50:33;9.6;28.2
78696;SHT31;68030;51.980;5.646;2023-02-28T13:53:34;9.6;28.2
78696;SHT31;68030;51.980;5.646;2023-02-28T13:56:33;9.7;27.6
78696;SHT31;68030;51.980;5.646;2023-02-28T13:59:18;9.7;27.9
78696;SHT31;68030;51.980;5.646;2023-02-28T14:02:06;9.7;27.8
78696;SHT31;68030;51.980;5.646;2023-02-28T14:04:51;9.8;27.1
78696;SHT31;68030;51.980;5.646;2023-02-28T14:07:27;9.8;26.8
78696;SHT31;68030;51.980;5.646;2023-02-28T14:10:02;9.7;27.2
78696;SHT31;68030;51.980;5.646;2023-02-28T14:12:58;9.7;27.5
78696;SHT31;68030;51.980;5.646;2023-02-28T14:15:38;9.7;28.0
78696;SHT31;68030;51.980;5.646;2023-02-28T14:18:17;9.7;27.8
78696;SHT31;68030;51.980;5.646;2023-02-28T14:20:49;9.7;27.7
78696;SHT31;68030;51.980;5.646;2023-02-28T14:23:41;9.8;28.0
78696;SHT31;68030;51.980;5.646;2023-02-28T14:26:25;9.8;27.5
78696;SHT31;68030;51.980;5.646;2023-02-28T14:29:14;9.8;27.7
78696;SHT31;68030;51.980;5.646;2023-02-28T14:31:57;9.8;27.5
78696;SHT31;68030;51.980;5.646;2023-02-28T14:34:35;9.8;28.5
78696;SHT31;68030;51.980;5.646;2023-02-28T14:37:18;9.8;28.3
78696;SHT31;68030;51.980;5.646;2023-02-28T14:39:49;9.8;28.2
78696;SHT31;68030;51.980;5.646;2023-02-28T14:42:34;9.8;27.6
78696;SHT31;68030;51.980;5.646;2023-02-28T14:45:06;9.8;27.9
78696;SHT31;68030;51.980;5.646;2023-02-28T14:47:36;9.8;27.6
78696;SHT31;68030;51.980;5.646;2023-02-28T14:50:17;9.8;27.8
78696;SHT31;68030;51.980;5.646;2023-02-28T14:52:43;9.8;28.0
78696;SHT31;68030;51.980;5.646;2023-02-28T14:55:17;9.8;27.6
78696;SHT31;68030;51.980;5.646;2023-02-28T14:57:54;9.8;28.1
78696;SHT31;68030;51.980;5.646;2023-02-28T15:00:27;9.7;27.9
78696;SHT31;68030;51.980;5.646;2023-02-28T15:02:59;9.7;27.8
78696;SHT31;68030;51.980;5.646;2023-02-28T15:05:33;9.7;27.7
78696;SHT31;68030;51.980;5.646;2023-02-28T15:08:12;9.7;27.9
78696;SHT31;68030;51.980;5.646;2023-02-28T15:10:49;9.7;27.9
78696;SHT31;68030;51.980;5.646;2023-02-28T15:13:21;9.7;27.9
78696;SHT31;68030;51.980;5.646;2023-02-28T15:15:56;9.7;27.5
78696;SHT31;68030;51.980;5.646;2023-02-28T15:18:33;9.6;28.0
78696;SHT31;68030;51.980;5.646;2023-02-28T15:21:07;9.6;28.3
78696;SHT31;68030;51.980;5.646;2023-02-28T15:23:41;9.6;28.1
78696;SHT31;68030;51.980;5.646;2023-02-28T15:26:14;9.6;28.2
78696;SHT31;68030;51.980;5.646;2023-02-28T15:28:46;9.6;28.5
78696;SHT31;68030;51.980;5.646;2023-02-28T15:31:27;9.7;28.5
78696;SHT31;68030;51.980;5.646;2023-02-28T15:34:04;9.7;27.9
78696;SHT31;68030;51.980;5.646;2023-02-28T15:36:34;9.8;28.4
78696;SHT31;68030;51.980;5.646;2023-02-28T15:39:20;9.9;28.2
78696;SHT31;68030;51.980;5.646;2023-02-28T15:41:50;9.9;28.0
78696;SHT31;68030;51.980;5.646;2023-02-28T15:44:27;9.9;28.0
78696;SHT31;68030;51.980;5.646;2023-02-28T15:47:04;9.9;27.9
78696;SHT31;68030;51.980;5.646;2023-02-28T15:49:40;9.9;28.0
78696;SHT31;68030;51.980;5.646;2023-02-28T15:52:13;9.9;27.9
78696;SHT31;68030;51.980;5.646;2023-02-28T15:54:48;9.9;27.6
78696;SHT31;68030;51.980;5.646;2023-02-28T15:57:22;9.9;27.5
78696;SHT31;68030;51.980;5.646;2023-02-28T15:59:56;9.8;28.0
78696;SHT31;68030;51.980;5.646;2023-02-28T16:02:33;9.8;28.3
78696;SHT31;68030;51.980;5.646;2023-02-28T16:05:20;9.7;28.3
78696;SHT31;68030;51.980;5.646;2023-02-28T16:07:57;9.7;28.3
78696;SHT31;68030;51.980;5.646;2023-02-28T16:10:28;9.6;28.5
78696;SHT31;68030;51.980;5.646;2023-02-28T16:12:58;9.6;28.3
78696;SHT31;68030;51.980;5.646;2023-02-28T16:15:30;9.6;28.5
78696;SHT31;68030;51.980;5.646;2023-02-28T16:18:01;9.5;28.8
78696;SHT31;68030;51.980;5.646;2023-02-28T16:20:31;9.5;29.6
78696;SHT31;68030;51.980;5.646;2023-02-28T16:23:00;9.5;29.3
78696;SHT31;68030;51.980;5.646;2023-02-28T16:25:35;9.5;29.8
78696;SHT31;68030;51.980;5.646;2023-02-28T16:28:12;9.5;29.8
78696;SHT31;68030;51.980;5.646;2023-02-28T16:30:45;9.5;29.5
78696;SHT31;68030;51.980;5.646;2023-02-28T16:33:15;9.5;29.8
78696;SHT31;68030;51.980;5.646;2023-02-28T16:35:44;9.4;29.2
78696;SHT31;68030;51.980;5.646;2023-02-28T16:38:14;9.4;29.2
78696;SHT31;68030;51.980;5.646;2023-02-28T16:40:44;9.4;29.4
78696;SHT31;68030;51.980;5.646;2023-02-28T16:43:18;9.3;29.3
78696;SHT31;68030;51.980;5.646;2023-02-28T16:45:56;9.3;30.0
78696;SHT31;68030;51.980;5.646;2023-02-28T16:48:28;9.2;29.4
78696;SHT31;68030;51.980;5.646;2023-02-28T16:50:59;9.2;29.8
78696;SHT31;68030;51.980;5.646;2023-02-28T16:53:31;9.1;30.2
78696;SHT31;68030;51.980;5.646;2023-02-28T16:56:03;9.1;30.2
78696;SHT31;68030;51.980;5.646;2023-02-28T16:58:34;9.1;30.6
78696;SHT31;68030;51.980;5.646;2023-02-28T17:01:05;9.0;30.6
78696;SHT31;68030;51.980;5.646;2023-02-28T17:03:34;9.0;30.4
78696;SHT31;68030;51.980;5.646;2023-02-28T17:06:06;8.9;30.3
78696;SHT31;68030;51.980;5.646;2023-02-28T17:08:40;8.8;30.7
78696;SHT31;68030;51.980;5.646;2023-02-28T17:11:10;8.7;30.6